sensor_id;sensor_type;location;lat;lon;timestamp;pressure;altitude;pressure_sealevel;temperature;humidity
71126;BME280;58785;55.566;38.058;2022-11-20T00:02:15;100357.38;;;0.02;78.35
71126;BME280;58785;55.566;38.058;2022-11-20T00:04:41;100361.44;;;0.07;78.10
71126;BME280;58785;55.566;38.058;2022-11-20T00:07:06;100357.81;;;0.10;78.00
71126;BME280;58785;55.566;38.058;2022-11-20T00:09:32;100368.25;;;0.11;78.05
71126;BME280;58785;55.566;38.058;2022-11-20T00:11:57;100360.41;;;0.11;78.08
71126;BME280;58785;55.566;38.058;2022-11-20T00:14:23;100357.06;;;0.08;77.97
71126;BME280;58785;55.566;38.058;2022-11-20T00:16:48;100363.63;;;0.16;77.91
71126;BME280;58785;55.566;38.058;2022-11-20T00:19:14;100365.19;;;0.20;77.81
71126;BME280;58785;55.566;38.058;2022-11-20T00:21:40;100365.19;;;0.20;77.91
71126;BME280;58785;55.566;38.058;2022-11-20T00:24:08;100362.56;;;0.20;77.76
71126;BME280;58785;55.566;38.058;2022-11-20T00:26:34;100347.97;;;0.15;78.01
71126;BME280;58785;55.566;38.058;2022-11-20T00:29:00;100355.47;;;0.22;77.80
71126;BME280;58785;55.566;38.058;2022-11-20T00:31:27;100367.31;;;0.29;77.81
71126;BME280;58785;55.566;38.058;2022-11-20T00:33:52;100355.22;;;0.27;77.51
71126;BME280;58785;55.566;38.058;2022-11-20T00:36:23;100356.78;;;0.31;77.84
71126;BME280;58785;55.566;38.058;2022-11-20T00:38:57;100364.25;;;0.39;77.42
71126;BME280;58785;55.566;38.058;2022-11-20T00:41:23;100372.38;;;0.34;77.92
71126;BME280;58785;55.566;38.058;2022-11-20T00:43:51;100358.19;;;0.21;77.46
71126;BME280;58785;55.566;38.058;2022-11-20T00:46:19;100365.25;;;0.19;77.85
71126;BME280;58785;55.566;38.058;2022-11-20T00:48:45;100367.19;;;0.15;77.93
71126;BME280;58785;55.566;38.058;2022-11-20T00:51:13;100369.97;;;0.12;77.67
71126;BME280;58785;55.566;38.058;2022-11-20T00:53:39;100358.06;;;0.05;77.87
71126;BME280;58785;55.566;38.058;2022-11-20T00:56:07;100353.06;;;0.01;77.95
71126;BME280;58785;55.566;38.058;2022-11-20T00:58:34;100359.19;;;-0.01;77.85
71126;BME280;58785;55.566;38.058;2022-11-20T01:03:35;100363.84;;;-0.06;77.83
71126;BME280;58785;55.566;38.058;2022-11-20T01:06:02;100362.91;;;-0.05;77.81
71126;BME280;58785;55.566;38.058;2022-11-20T01:08:32;100352.25;;;-0.19;78.09
71126;BME280;58785;55.566;38.058;2022-11-20T01:11:06;100354.78;;;-0.17;77.85
71126;BME280;58785;55.566;38.058;2022-11-20T01:13:33;100350.47;;;-0.18;78.12
71126;BME280;58785;55.566;38.058;2022-11-20T01:16:20;100357.41;;;-0.17;77.86
71126;BME280;58785;55.566;38.058;2022-11-20T01:18:48;100354.91;;;-0.20;78.00
71126;BME280;58785;55.566;38.058;2022-11-20T01:21:26;100366.81;;;-0.13;77.94
71126;BME280;58785;55.566;38.058;2022-11-20T01:23:52;100366.66;;;-0.10;77.85
71126;BME280;58785;55.566;38.058;2022-11-20T01:26:21;100362.56;;;-0.16;77.83
71126;BME280;58785;55.566;38.058;2022-11-20T01:28:47;100362.34;;;-0.11;77.96
71126;BME280;58785;55.566;38.058;2022-11-20T01:31:25;100363.56;;;-0.18;77.71
71126;BME280;58785;55.566;38.058;2022-11-20T01:33:53;100373.22;;;-0.19;77.85
71126;BME280;58785;55.566;38.058;2022-11-20T01:36:20;100356.69;;;-0.21;78.10
71126;BME280;58785;55.566;38.058;2022-11-20T01:38:47;100364.50;;;-0.19;77.81
71126;BME280;58785;55.566;38.058;2022-11-20T01:41:14;100377.44;;;-0.16;77.85
71126;BME280;58785;55.566;38.058;2022-11-20T01:44:00;100366.28;;;-0.20;77.44
71126;BME280;58785;55.566;38.058;2022-11-20T01:46:26;100380.91;;;-0.16;77.72
71126;BME280;58785;55.566;38.058;2022-11-20T01:49:02;100375.84;;;-0.19;77.02
71126;BME280;58785;55.566;38.058;2022-11-20T01:51:33;100365.91;;;-0.31;77.63
71126;BME280;58785;55.566;38.058;2022-11-20T01:54:07;100378.16;;;-0.32;77.65
71126;BME280;58785;55.566;38.058;2022-11-20T01:56:37;100389.56;;;-0.33;77.87
71126;BME280;58785;55.566;38.058;2022-11-20T01:59:05;100380.31;;;-0.40;77.65
71126;BME280;58785;55.566;38.058;2022-11-20T02:01:32;100385.41;;;-0.37;77.63
71126;BME280;58785;55.566;38.058;2022-11-20T02:03:58;100371.56;;;-0.40;77.65
71126;BME280;58785;55.566;38.058;2022-11-20T02:06:35;100395.97;;;-0.38;77.30
71126;BME280;58785;55.566;38.058;2022-11-20T02:09:01;100398.91;;;-0.46;77.54
71126;BME280;58785;55.566;38.058;2022-11-20T02:11:30;100386.91;;;-0.50;77.41
71126;BME280;58785;55.566;38.058;2022-11-20T02:13:55;100405.00;;;-0.45;77.65
71126;BME280;58785;55.566;38.058;2022-11-20T02:16:30;100406.94;;;-0.49;77.20
71126;BME280;58785;55.566;38.058;2022-11-20T02:19:00;100396.56;;;-0.52;77.67
71126;BME280;58785;55.566;38.058;2022-11-20T02:24:26;100394.81;;;-0.51;77.26
71126;BME280;58785;55.566;38.058;2022-11-20T02:26:54;100413.88;;;-0.48;77.49
71126;BME280;58785;55.566;38.058;2022-11-20T02:29:27;100411.88;;;-0.43;77.15
71126;BME280;58785;55.566;38.058;2022-11-20T02:31:54;100394.81;;;-0.51;77.22
71126;BME280;58785;55.566;38.058;2022-11-20T02:34:20;100421.31;;;-0.39;77.24
71126;BME280;58785;55.566;38.058;2022-11-20T02:36:46;100418.81;;;-0.42;77.00
71126;BME280;58785;55.566;38.058;2022-11-20T02:39:13;100406.28;;;-0.54;76.97
71126;BME280;58785;55.566;38.058;2022-11-20T02:41:42;100423.34;;;-0.45;77.06
71126;BME280;58785;55.566;38.058;2022-11-20T02:44:07;100418.19;;;-0.47;77.23
71126;BME280;58785;55.566;38.058;2022-11-20T02:46:33;100416.41;;;-0.46;77.14
71126;BME280;58785;55.566;38.058;2022-11-20T02:49:01;100425.19;;;-0.47;76.95
71126;BME280;58785;55.566;38.058;2022-11-20T02:51:26;100430.34;;;-0.46;76.70
71126;BME280;58785;55.566;38.058;2022-11-20T02:53:52;100430.44;;;-0.47;76.77
71126;BME280;58785;55.566;38.058;2022-11-20T02:56:18;100429.84;;;-0.54;76.91
71126;BME280;58785;55.566;38.058;2022-11-20T02:58:43;100430.00;;;-0.57;77.08
71126;BME280;58785;55.566;38.058;2022-11-20T03:01:09;100428.72;;;-0.48;77.40
71126;BME280;58785;55.566;38.058;2022-11-20T03:03:35;100424.19;;;-0.45;76.95
71126;BME280;58785;55.566;38.058;2022-11-20T03:06:01;100420.03;;;-0.49;76.94
71126;BME280;58785;55.566;38.058;2022-11-20T03:08:26;100425.97;;;-0.45;77.14
71126;BME280;58785;55.566;38.058;2022-11-20T03:10:52;100424.03;;;-0.42;76.50
71126;BME280;58785;55.566;38.058;2022-11-20T03:13:17;100421.50;;;-0.43;76.97
71126;BME280;58785;55.566;38.058;2022-11-20T03:15:43;100420.88;;;-0.48;77.06
71126;BME280;58785;55.566;38.058;2022-11-20T03:18:08;100433.13;;;-0.49;76.89
71126;BME280;58785;55.566;38.058;2022-11-20T03:20:34;100443.66;;;-0.50;77.08
71126;BME280;58785;55.566;38.058;2022-11-20T03:23:00;100435.78;;;-0.50;77.00
71126;BME280;58785;55.566;38.058;2022-11-20T03:25:26;100447.91;;;-0.48;76.66
71126;BME280;58785;55.566;38.058;2022-11-20T03:27:52;100450.81;;;-0.54;76.80
71126;BME280;58785;55.566;38.058;2022-11-20T03:30:17;100448.84;;;-0.49;76.94
71126;BME280;58785;55.566;38.058;2022-11-20T03:32:43;100454.78;;;-0.45;76.98
71126;BME280;58785;55.566;38.058;2022-11-20T03:35:09;100450.25;;;-0.42;76.61
71126;BME280;58785;55.566;38.058;2022-11-20T03:37:35;100448.28;;;-0.37;76.64
71126;BME280;58785;55.566;38.058;2022-11-20T03:40:00;100445.06;;;-0.43;76.49
71126;BME280;58785;55.566;38.058;2022-11-20T03:42:26;100437.38;;;-0.46;76.70
71126;BME280;58785;55.566;38.058;2022-11-20T03:45:10;100454.50;;;-0.39;76.62
71126;BME280;58785;55.566;38.058;2022-11-20T03:47:36;100451.09;;;-0.41;76.57
71126;BME280;58785;55.566;38.058;2022-11-20T03:50:03;100434.25;;;-0.54;76.81
71126;BME280;58785;55.566;38.058;2022-11-20T03:52:28;100448.75;;;-0.47;76.61
71126;BME280;58785;55.566;38.058;2022-11-20T03:54:54;100455.00;;;-0.50;76.30
71126;BME280;58785;55.566;38.058;2022-11-20T03:57:19;100454.13;;;-0.50;76.58
71126;BME280;58785;55.566;38.058;2022-11-20T03:59:45;100452.50;;;-0.53;76.50
71126;BME280;58785;55.566;38.058;2022-11-20T04:02:10;100470.75;;;-0.51;76.41
71126;BME280;58785;55.566;38.058;2022-11-20T04:04:36;100462.19;;;-0.55;76.84
71126;BME280;58785;55.566;38.058;2022-11-20T04:07:02;100461.97;;;-0.50;76.60
71126;BME280;58785;55.566;38.058;2022-11-20T04:09:27;100459.44;;;-0.52;76.37
71126;BME280;58785;55.566;38.058;2022-11-20T04:11:53;100465.41;;;-0.48;76.37
71126;BME280;58785;55.566;38.058;2022-11-20T04:14:18;100473.13;;;-0.45;76.48
71126;BME280;58785;55.566;38.058;2022-11-20T04:16:44;100472.97;;;-0.42;76.16
71126;BME280;58785;55.566;38.058;2022-11-20T04:19:12;100489.41;;;-0.39;76.33
71126;BME280;58785;55.566;38.058;2022-11-20T04:21:38;100483.94;;;-0.34;76.22
71126;BME280;58785;55.566;38.058;2022-11-20T04:24:03;100481.25;;;-0.33;76.38
71126;BME280;58785;55.566;38.058;2022-11-20T04:26:30;100467.38;;;-0.35;76.09
71126;BME280;58785;55.566;38.058;2022-11-20T04:28:57;100474.47;;;-0.37;76.13
71126;BME280;58785;55.566;38.058;2022-11-20T04:31:24;100480.75;;;-0.41;76.25
71126;BME280;58785;55.566;38.058;2022-11-20T04:33:51;100485.94;;;-0.39;76.32
71126;BME280;58785;55.566;38.058;2022-11-20T04:36:19;100500.84;;;-0.41;76.05
71126;BME280;58785;55.566;38.058;2022-11-20T04:38:45;100502.50;;;-0.39;75.93
71126;BME280;58785;55.566;38.058;2022-11-20T04:41:18;100511.00;;;-0.34;76.04
71126;BME280;58785;55.566;38.058;2022-11-20T04:43:48;100515.25;;;-0.31;76.14
71126;BME280;58785;55.566;38.058;2022-11-20T04:46:14;100508.19;;;-0.29;75.83
71126;BME280;58785;55.566;38.058;2022-11-20T04:48:40;100495.28;;;-0.34;75.89
71126;BME280;58785;55.566;38.058;2022-11-20T04:51:05;100510.84;;;-0.31;75.89
71126;BME280;58785;55.566;38.058;2022-11-20T04:53:32;100511.78;;;-0.32;76.04
71126;BME280;58785;55.566;38.058;2022-11-20T04:56:02;100523.91;;;-0.29;75.80
71126;BME280;58785;55.566;38.058;2022-11-20T04:58:29;100515.13;;;-0.28;75.75
71126;BME280;58785;55.566;38.058;2022-11-20T05:01:17;100517.69;;;-0.26;75.46
71126;BME280;58785;55.566;38.058;2022-11-20T05:03:43;100512.91;;;-0.37;75.76
71126;BME280;58785;55.566;38.058;2022-11-20T05:06:11;100521.69;;;-0.38;75.62
71126;BME280;58785;55.566;38.058;2022-11-20T05:08:37;100522.81;;;-0.44;75.89
71126;BME280;58785;55.566;38.058;2022-11-20T05:11:06;100539.22;;;-0.40;75.82
71126;BME280;58785;55.566;38.058;2022-11-20T05:13:31;100539.97;;;-0.37;75.56
71126;BME280;58785;55.566;38.058;2022-11-20T05:16:09;100545.66;;;-0.27;75.36
71126;BME280;58785;55.566;38.058;2022-11-20T05:18:35;100545.56;;;-0.25;75.37
71126;BME280;58785;55.566;38.058;2022-11-20T05:21:02;100544.91;;;-0.31;75.09
71126;BME280;58785;55.566;38.058;2022-11-20T05:23:29;100552.06;;;-0.34;75.44
71126;BME280;58785;55.566;38.058;2022-11-20T05:25:56;100565.84;;;-0.29;75.30
71126;BME280;58785;55.566;38.058;2022-11-20T05:28:22;100561.44;;;-0.28;75.75
71126;BME280;58785;55.566;38.058;2022-11-20T05:30:48;100559.66;;;-0.28;75.36
71126;BME280;58785;55.566;38.058;2022-11-20T05:33:14;100560.63;;;-0.31;75.26
71126;BME280;58785;55.566;38.058;2022-11-20T05:35:40;100555.41;;;-0.31;75.49
71126;BME280;58785;55.566;38.058;2022-11-20T05:38:06;100562.16;;;-0.25;75.00
71126;BME280;58785;55.566;38.058;2022-11-20T05:40:31;100561.06;;;-0.21;75.28
71126;BME280;58785;55.566;38.058;2022-11-20T05:42:57;100566.53;;;-0.25;75.11
71126;BME280;58785;55.566;38.058;2022-11-20T05:45:22;100566.53;;;-0.25;75.05
71126;BME280;58785;55.566;38.058;2022-11-20T05:47:48;100575.84;;;-0.18;75.24
71126;BME280;58785;55.566;38.058;2022-11-20T05:50:14;100573.28;;;-0.20;75.00
71126;BME280;58785;55.566;38.058;2022-11-20T05:52:40;100570.66;;;-0.20;74.88
71126;BME280;58785;55.566;38.058;2022-11-20T05:55:06;100587.63;;;-0.08;74.90
71126;BME280;58785;55.566;38.058;2022-11-20T05:57:32;100594.56;;;-0.07;75.16
71126;BME280;58785;55.566;38.058;2022-11-20T05:59:58;100602.13;;;-0.01;74.36
71126;BME280;58785;55.566;38.058;2022-11-20T06:02:23;100607.09;;;0.05;74.50
71126;BME280;58785;55.566;38.058;2022-11-20T06:04:49;100599.16;;;0.07;74.30
71126;BME280;58785;55.566;38.058;2022-11-20T06:07:14;100600.69;;;0.12;74.29
71126;BME280;58785;55.566;38.058;2022-11-20T06:09:40;100616.00;;;0.21;74.25
71126;BME280;58785;55.566;38.058;2022-11-20T06:12:06;100609.53;;;0.28;74.00
71126;BME280;58785;55.566;38.058;2022-11-20T06:14:32;100615.44;;;0.34;73.78
71126;BME280;58785;55.566;38.058;2022-11-20T06:16:58;100612.97;;;0.31;73.60
71126;BME280;58785;55.566;38.058;2022-11-20T06:19:23;100612.88;;;0.32;73.71
71126;BME280;58785;55.566;38.058;2022-11-20T06:21:49;100623.22;;;0.35;73.84
71126;BME280;58785;55.566;38.058;2022-11-20T06:24:15;100624.84;;;0.38;73.62
71126;BME280;58785;55.566;38.058;2022-11-20T06:26:41;100636.63;;;0.48;73.58
71126;BME280;58785;55.566;38.058;2022-11-20T06:29:06;100640.94;;;0.49;73.72
71126;BME280;58785;55.566;38.058;2022-11-20T06:31:32;100628.13;;;0.43;73.49
71126;BME280;58785;55.566;38.058;2022-11-20T06:34:05;100641.75;;;0.51;73.33
71126;BME280;58785;55.566;38.058;2022-11-20T06:36:32;100647.00;;;0.51;73.27
71126;BME280;58785;55.566;38.058;2022-11-20T06:38:58;100641.59;;;0.54;73.39
71126;BME280;58785;55.566;38.058;2022-11-20T06:41:24;100650.16;;;0.57;73.07
71126;BME280;58785;55.566;38.058;2022-11-20T06:43:50;100639.59;;;0.59;73.30
71126;BME280;58785;55.566;38.058;2022-11-20T06:46:17;100647.28;;;0.64;72.82
71126;BME280;58785;55.566;38.058;2022-11-20T06:48:43;100649.91;;;0.64;72.89
71126;BME280;58785;55.566;38.058;2022-11-20T06:51:09;100649.03;;;0.63;73.00
71126;BME280;58785;55.566;38.058;2022-11-20T06:53:35;100654.72;;;0.73;72.84
71126;BME280;58785;55.566;38.058;2022-11-20T06:56:01;100643.50;;;0.69;72.84
71126;BME280;58785;55.566;38.058;2022-11-20T06:58:28;100647.97;;;0.67;72.74
71126;BME280;58785;55.566;38.058;2022-11-20T07:01:01;100636.13;;;0.58;72.67
71126;BME280;58785;55.566;38.058;2022-11-20T07:03:27;100631.69;;;0.61;72.71
71126;BME280;58785;55.566;38.058;2022-11-20T07:05:57;100613.34;;;0.59;72.61
71126;BME280;58785;55.566;38.058;2022-11-20T07:08:23;100628.66;;;0.68;72.64
71126;BME280;58785;55.566;38.058;2022-11-20T07:10:49;100615.78;;;0.64;72.61
71126;BME280;58785;55.566;38.058;2022-11-20T07:13:15;100619.03;;;0.69;72.39
71126;BME280;58785;55.566;38.058;2022-11-20T07:15:40;100633.97;;;0.85;72.20
71126;BME280;58785;55.566;38.058;2022-11-20T07:18:06;100645.81;;;0.94;71.82
71126;BME280;58785;55.566;38.058;2022-11-20T07:20:31;100644.06;;;0.95;71.66
71126;BME280;58785;55.566;38.058;2022-11-20T07:22:57;100640.84;;;0.88;71.78
71126;BME280;58785;55.566;38.058;2022-11-20T07:25:27;100646.88;;;0.90;71.66
71126;BME280;58785;55.566;38.058;2022-11-20T07:27:56;100660.38;;;1.01;71.41
71126;BME280;58785;55.566;38.058;2022-11-20T07:30:22;100651.16;;;1.10;71.34
71126;BME280;58785;55.566;38.058;2022-11-20T07:32:52;100644.31;;;1.07;71.63
71126;BME280;58785;55.566;38.058;2022-11-20T07:35:18;100642.75;;;1.03;71.58
71126;BME280;58785;55.566;38.058;2022-11-20T07:37:44;100641.25;;;0.98;71.61
71126;BME280;58785;55.566;38.058;2022-11-20T07:40:12;100644.06;;;0.95;71.41
71126;BME280;58785;55.566;38.058;2022-11-20T07:42:38;100659.53;;;1.01;71.20
71126;BME280;58785;55.566;38.058;2022-11-20T07:45:04;100658.50;;;1.03;71.42
71126;BME280;58785;55.566;38.058;2022-11-20T07:47:35;100661.56;;;1.13;71.05
71126;BME280;58785;55.566;38.058;2022-11-20T07:50:01;100666.81;;;1.13;71.11
71126;BME280;58785;55.566;38.058;2022-11-20T07:52:27;100660.47;;;1.17;70.84
71126;BME280;58785;55.566;38.058;2022-11-20T07:54:54;100669.53;;;1.29;70.94
71126;BME280;58785;55.566;38.058;2022-11-20T07:57:19;100659.72;;;1.32;70.49
71126;BME280;58785;55.566;38.058;2022-11-20T07:59:45;100663.13;;;1.34;70.36
71126;BME280;58785;55.566;38.058;2022-11-20T08:02:11;100662.28;;;1.34;70.43
71126;BME280;58785;55.566;38.058;2022-11-20T08:04:37;100658.81;;;1.33;70.40
71126;BME280;58785;55.566;38.058;2022-11-20T08:07:02;100660.88;;;1.27;70.79
71126;BME280;58785;55.566;38.058;2022-11-20T08:09:28;100687.28;;;1.24;70.69
71126;BME280;58785;55.566;38.058;2022-11-20T08:11:54;100682.56;;;1.13;70.82
71126;BME280;58785;55.566;38.058;2022-11-20T08:14:38;100696.03;;;1.24;71.13
71126;BME280;58785;55.566;38.058;2022-11-20T08:17:03;100679.09;;;1.30;70.70
71126;BME280;58785;55.566;38.058;2022-11-20T08:19:30;100681.53;;;1.34;70.56
71126;BME280;58785;55.566;38.058;2022-11-20T08:21:55;100686.63;;;1.37;70.27
71126;BME280;58785;55.566;38.058;2022-11-20T08:24:21;100678.97;;;1.33;70.54
71126;BME280;58785;55.566;38.058;2022-11-20T08:26:46;100696.06;;;1.41;70.10
71126;BME280;58785;55.566;38.058;2022-11-20T08:29:12;100691.59;;;1.43;70.01
71126;BME280;58785;55.566;38.058;2022-11-20T08:31:38;100695.25;;;1.39;69.93
71126;BME280;58785;55.566;38.058;2022-11-20T08:34:03;100678.72;;;1.37;70.13
71126;BME280;58785;55.566;38.058;2022-11-20T08:36:33;100689.34;;;1.53;70.01
71126;BME280;58785;55.566;38.058;2022-11-20T08:38:59;100692.38;;;1.63;69.70
71126;BME280;58785;55.566;38.058;2022-11-20T08:41:24;100683.31;;;1.51;69.49
71126;BME280;58785;55.566;38.058;2022-11-20T08:43:55;100695.47;;;1.54;69.54
71126;BME280;58785;55.566;38.058;2022-11-20T08:46:23;100696.06;;;1.59;69.92
71126;BME280;58785;55.566;38.058;2022-11-20T08:48:48;100698.41;;;1.65;69.34
71126;BME280;58785;55.566;38.058;2022-11-20T08:51:14;100694.00;;;1.65;69.25
71126;BME280;58785;55.566;38.058;2022-11-20T08:53:41;100689.41;;;1.69;69.38
71126;BME280;58785;55.566;38.058;2022-11-20T08:56:07;100703.13;;;1.76;69.52
71126;BME280;58785;55.566;38.058;2022-11-20T08:58:33;100725.47;;;1.84;69.05
71126;BME280;58785;55.566;38.058;2022-11-20T09:00:58;100723.44;;;1.89;69.13
71126;BME280;58785;55.566;38.058;2022-11-20T09:03:24;100724.16;;;1.93;68.49
71126;BME280;58785;55.566;38.058;2022-11-20T09:05:57;100727.47;;;1.96;68.67
71126;BME280;58785;55.566;38.058;2022-11-20T09:08:23;100739.69;;;1.97;69.03
71126;BME280;58785;55.566;38.058;2022-11-20T09:10:52;100739.78;;;1.96;68.87
71126;BME280;58785;55.566;38.058;2022-11-20T09:13:19;100746.44;;;2.03;68.70
71126;BME280;58785;55.566;38.058;2022-11-20T09:15:45;100725.94;;;1.92;68.53
71126;BME280;58785;55.566;38.058;2022-11-20T09:18:10;100748.91;;;2.06;68.58
71126;BME280;58785;55.566;38.058;2022-11-20T09:20:36;100750.59;;;2.07;68.24
71126;BME280;58785;55.566;38.058;2022-11-20T09:23:02;100753.31;;;2.06;68.83
71126;BME280;58785;55.566;38.058;2022-11-20T09:25:27;100746.53;;;2.01;68.24
71126;BME280;58785;55.566;38.058;2022-11-20T09:27:59;100752.63;;;2.02;68.76
71126;BME280;58785;55.566;38.058;2022-11-20T09:30:26;100764.13;;;2.17;68.59
71126;BME280;58785;55.566;38.058;2022-11-20T09:32:52;100766.38;;;2.24;68.46
71126;BME280;58785;55.566;38.058;2022-11-20T09:35:17;100767.69;;;2.33;68.10
71126;BME280;58785;55.566;38.058;2022-11-20T09:37:43;100770.94;;;2.38;67.71
71126;BME280;58785;55.566;38.058;2022-11-20T09:43:21;100794.09;;;2.32;68.19
71126;BME280;58785;55.566;38.058;2022-11-20T09:51:29;100787.09;;;2.48;67.88
71126;BME280;58785;55.566;38.058;2022-11-20T09:54:19;100787.25;;;2.45;67.42
71126;BME280;58785;55.566;38.058;2022-11-20T09:57:23;100792.63;;;2.43;67.28
71126;BME280;58785;55.566;38.058;2022-11-20T09:59:59;100789.22;;;2.41;67.68
71126;BME280;58785;55.566;38.058;2022-11-20T10:02:33;100790.28;;;2.37;67.77
71126;BME280;58785;55.566;38.058;2022-11-20T10:05:19;100786.59;;;2.41;67.37
71126;BME280;58785;55.566;38.058;2022-11-20T10:07:55;100794.16;;;2.47;67.51
71126;BME280;58785;55.566;38.058;2022-11-20T10:11:01;100793.97;;;2.50;67.39
71126;BME280;58785;55.566;38.058;2022-11-20T10:19:11;100819.41;;;2.51;67.58
71126;BME280;58785;55.566;38.058;2022-11-20T10:24:55;100811.41;;;2.53;67.49
71126;BME280;58785;55.566;38.058;2022-11-20T10:30:14;100810.75;;;2.32;67.91
71126;BME280;58785;55.566;38.058;2022-11-20T10:32:44;100812.44;;;2.33;67.81
71126;BME280;58785;55.566;38.058;2022-11-20T10:37:44;100808.78;;;2.36;67.40
71126;BME280;58785;55.566;38.058;2022-11-20T10:40:30;100818.78;;;2.46;67.95
71126;BME280;58785;55.566;38.058;2022-11-20T10:43:21;100827.44;;;2.48;67.44
71126;BME280;58785;55.566;38.058;2022-11-20T10:46:01;100832.56;;;2.51;67.52
71126;BME280;58785;55.566;38.058;2022-11-20T10:48:31;100818.00;;;2.44;67.82
71126;BME280;58785;55.566;38.058;2022-11-20T10:51:07;100830.22;;;2.45;68.12
71126;BME280;58785;55.566;38.058;2022-11-20T10:53:56;100832.94;;;2.44;68.11
71126;BME280;58785;55.566;38.058;2022-11-20T10:56:37;100838.81;;;2.49;67.83
71126;BME280;58785;55.566;38.058;2022-11-20T10:59:25;100839.53;;;2.52;67.92
71126;BME280;58785;55.566;38.058;2022-11-20T11:01:53;100829.06;;;2.51;67.95
71126;BME280;58785;55.566;38.058;2022-11-20T11:06:58;100841.22;;;2.53;67.63
71126;BME280;58785;55.566;38.058;2022-11-20T11:09:36;100830.31;;;2.44;68.12
71126;BME280;58785;55.566;38.058;2022-11-20T11:12:07;100835.31;;;2.48;68.37
71126;BME280;58785;55.566;38.058;2022-11-20T11:14:48;100830.41;;;2.42;68.37
71126;BME280;58785;55.566;38.058;2022-11-20T11:17:32;100843.69;;;2.39;68.12
71126;BME280;58785;55.566;38.058;2022-11-20T11:22:23;100848.72;;;2.26;68.75
71126;BME280;58785;55.566;38.058;2022-11-20T11:24:53;100838.56;;;2.19;69.45
71126;BME280;58785;55.566;38.058;2022-11-20T11:27:19;100857.06;;;2.17;69.04
71126;BME280;58785;55.566;38.058;2022-11-20T11:29:45;100842.06;;;2.19;68.96
71126;BME280;58785;55.566;38.058;2022-11-20T11:32:14;100834.03;;;2.22;68.96
71126;BME280;58785;55.566;38.058;2022-11-20T11:34:40;100830.59;;;2.20;68.67
71126;BME280;58785;55.566;38.058;2022-11-20T11:37:20;100839.13;;;2.25;68.72
71126;BME280;58785;55.566;38.058;2022-11-20T11:39:47;100833.88;;;2.25;69.43
71126;BME280;58785;55.566;38.058;2022-11-20T11:42:17;100841.50;;;2.30;69.02
71126;BME280;58785;55.566;38.058;2022-11-20T11:44:46;100844.88;;;2.34;68.89
71126;BME280;58785;55.566;38.058;2022-11-20T11:47:44;100837.72;;;2.18;69.07
71126;BME280;58785;55.566;38.058;2022-11-20T11:52:51;100846.44;;;1.65;70.47
71126;BME280;58785;55.566;38.058;2022-11-20T11:55:40;100859.94;;;1.58;70.62
71126;BME280;58785;55.566;38.058;2022-11-20T11:58:29;100862.72;;;1.55;70.53
71126;BME280;58785;55.566;38.058;2022-11-20T12:01:04;100863.84;;;1.49;70.90
71126;BME280;58785;55.566;38.058;2022-11-20T12:03:40;100864.84;;;1.47;71.15
71126;BME280;58785;55.566;38.058;2022-11-20T12:06:15;100862.06;;;1.50;70.78
71126;BME280;58785;55.566;38.058;2022-11-20T12:08:57;100866.06;;;1.58;70.88
71126;BME280;58785;55.566;38.058;2022-11-20T12:14:37;100867.97;;;1.55;70.65
71126;BME280;58785;55.566;38.058;2022-11-20T12:17:04;100860.53;;;1.46;71.09
71126;BME280;58785;55.566;38.058;2022-11-20T12:19:31;100850.25;;;1.41;71.30
71126;BME280;58785;55.566;38.058;2022-11-20T12:30:19;100856.19;;;1.44;71.48
71126;BME280;58785;55.566;38.058;2022-11-20T12:44:16;100862.78;;;1.15;71.85
71126;BME280;58785;55.566;38.058;2022-11-20T13:00:21;100877.41;;;1.21;71.64
71126;BME280;58785;55.566;38.058;2022-11-20T13:03:09;100883.56;;;1.20;71.90
71126;BME280;58785;55.566;38.058;2022-11-20T13:11:10;100868.91;;;1.35;71.43
71126;BME280;58785;55.566;38.058;2022-11-20T13:13:49;100883.53;;;1.40;71.45
71126;BME280;58785;55.566;38.058;2022-11-20T13:16:30;100886.09;;;1.42;71.30
71126;BME280;58785;55.566;38.058;2022-11-20T13:19:02;100875.94;;;1.34;71.73
71126;BME280;58785;55.566;38.058;2022-11-20T13:21:45;100880.25;;;1.35;71.83
71126;BME280;58785;55.566;38.058;2022-11-20T13:24:26;100874.22;;;1.33;71.63
71126;BME280;58785;55.566;38.058;2022-11-20T13:27:05;100898.44;;;1.40;71.77
71126;BME280;58785;55.566;38.058;2022-11-20T13:29:45;100900.44;;;1.35;71.55
71126;BME280;58785;55.566;38.058;2022-11-20T13:32:20;100902.91;;;1.38;71.93
71126;BME280;58785;55.566;38.058;2022-11-20T13:34:57;100904.41;;;1.43;71.42
71126;BME280;58785;55.566;38.058;2022-11-20T13:37:43;100900.72;;;1.48;71.28
71126;BME280;58785;55.566;38.058;2022-11-20T13:42:44;100900.00;;;1.44;71.58
71126;BME280;58785;55.566;38.058;2022-11-20T13:47:50;100910.53;;;1.44;71.49
71126;BME280;58785;55.566;38.058;2022-11-20T13:50:15;100909.59;;;1.45;71.83
71126;BME280;58785;55.566;38.058;2022-11-20T13:55:58;100906.31;;;1.40;71.93
71126;BME280;58785;55.566;38.058;2022-11-20T14:01:16;100916.13;;;1.36;72.45
71126;BME280;58785;55.566;38.058;2022-11-20T14:03:42;100905.09;;;1.28;71.91
71126;BME280;58785;55.566;38.058;2022-11-20T14:06:20;100914.13;;;1.23;71.96
71126;BME280;58785;55.566;38.058;2022-11-20T14:08:49;100922.97;;;1.20;72.30
71126;BME280;58785;55.566;38.058;2022-11-20T14:14:13;100927.13;;;1.26;72.13
71126;BME280;58785;55.566;38.058;2022-11-20T14:16:40;100930.50;;;1.28;72.09
71126;BME280;58785;55.566;38.058;2022-11-20T14:22:06;100929.47;;;1.32;72.18
71126;BME280;58785;55.566;38.058;2022-11-20T14:24:32;100936.22;;;1.37;72.43
71126;BME280;58785;55.566;38.058;2022-11-20T14:26:58;100929.47;;;1.32;72.25
71126;BME280;58785;55.566;38.058;2022-11-20T14:29:29;100939.31;;;1.27;72.42
71126;BME280;58785;55.566;38.058;2022-11-20T14:31:58;100931.72;;;1.21;72.23